Time;durP1;ratioP1;P1;durP2;ratioP2;P2;SDS_P1;SDS_P2;PMS_P1;PMS_P2;Temp;Humidity;BMP_temperature;BMP_pressure;BME280_temperature;BME280_humidity;BME280_pressure;Samples;Min_cycle;Max_cycle;Signal;HPM_P1;HPM_P2
2023/04/26 00:00:07;;;;;;;0.32;0.32;;;;;;;8.25;52.03;101314.06;6336643;23;20024;-88
2023/04/26 00:02:38;;;;;;;1.25;1.15;;;;;;;8.25;52.06;101314.06;6336101;23;20020;-87
2023/04/26 00:05:09;;;;;;;0.22;0.22;;;;;;;8.16;52.42;101315.88;6357998;23;20021;-87
2023/04/26 00:07:39;;;;;;;0.30;0.30;;;;;;;8.16;51.96;101313.25;6336385;23;20068;-87
2023/04/26 00:10:10;;;;;;;0.30;0.30;;;;;;;8.18;52.54;101308.88;6333498;23;20096;-87
2023/04/26 00:12:41;;;;;;;0.70;0.70;;;;;;;8.22;52.67;101309.72;6333109;23;20108;-86
2023/04/26 00:15:12;;;;;;;0.30;0.30;;;;;;;8.23;52.32;101306.25;6333416;23;20024;-86
2023/04/26 00:17:42;;;;;;;0.22;0.22;;;;;;;8.17;52.20;101311.53;6336797;23;20563;-87
2023/04/26 00:20:13;;;;;;;0.50;0.50;;;;;;;8.16;52.74;101309.78;6334676;23;20024;-87
2023/04/26 00:22:43;;;;;;;0.30;0.30;;;;;;;8.11;52.96;101306.31;6337367;23;20088;-87
2023/04/26 00:25:14;;;;;;;0.75;0.75;;;;;;;8.11;53.33;101312.44;6365073;23;20226;-86
2023/04/26 00:27:45;;;;;;;0.30;0.30;;;;;;;8.07;52.71;101310.69;6337266;23;20024;-87
2023/04/26 00:30:15;;;;;;;0.93;0.90;;;;;;;8.06;52.33;101314.19;6333890;23;20036;-88
2023/04/26 00:32:46;;;;;;;0.28;0.28;;;;;;;8.05;53.04;101315.09;6373227;23;20002;-88
2023/04/26 00:35:17;;;;;;;0.43;0.43;;;;;;;7.99;52.89;101302.06;6332765;23;20096;-87
2023/04/26 00:37:50;;;;;;;0.65;0.65;;;;;;;7.96;52.86;101297.72;6337532;23;20048;-87
2023/04/26 00:40:21;;;;;;;0.63;0.47;;;;;;;7.94;53.06;101303.84;6305918;23;20033;-87
2023/04/26 00:42:59;;;;;;;0.25;0.25;;;;;;;7.88;52.29;101307.34;6338035;23;20020;-87
2023/04/26 00:45:30;;;;;;;0.52;0.52;;;;;;;7.87;52.71;101290.81;6335805;23;20659;-88
2023/04/26 00:48:02;;;;;;;0.77;0.77;;;;;;;7.81;52.12;101301.28;6337951;23;20009;-86
2023/04/26 00:50:32;;;;;;;1.60;1.50;;;;;;;7.81;53.30;101293.44;6359059;23;20092;-88
2023/04/26 00:53:03;;;;;;;0.70;0.70;;;;;;;7.76;53.49;101302.22;6337664;23;20038;-87
2023/04/26 00:55:34;;;;;;;1.50;1.10;;;;;;;7.74;52.77;101302.22;6335122;23;20041;-86
2023/04/26 00:58:05;;;;;;;0.82;0.82;;;;;;;7.69;52.43;101298.78;6338440;23;20013;-87
2023/04/26 01:00:36;;;;;;;0.20;0.20;;;;;;;7.68;53.54;101297.03;6359581;23;20024;-88
2023/04/26 01:03:07;;;;;;;0.30;0.30;;;;;;;7.65;52.77;101302.25;6362120;23;20087;-87
2023/04/26 01:05:37;;;;;;;0.45;0.45;;;;;;;7.61;53.31;101301.41;6359736;23;20088;-87
2023/04/26 01:08:09;;;;;;;0.55;0.55;;;;;;;7.60;53.28;101298.81;6337155;23;20001;-87
2023/04/26 01:10:39;;;;;;;0.30;0.30;;;;;;;7.57;52.88;101299.72;6363608;23;20435;-86
2023/04/26 01:13:10;;;;;;;0.30;0.30;;;;;;;7.58;53.44;101298.84;6338371;23;20016;-86
2023/04/26 01:15:45;;;;;;;0.20;0.20;;;;;;;7.54;53.19;101299.72;6335307;23;20014;-88
2023/04/26 01:18:16;;;;;;;0.35;0.35;;;;;;;7.50;53.51;101298.00;6337384;23;20040;-88
2023/04/26 01:20:47;;;;;;;0.50;0.50;;;;;;;7.48;53.32;101305.81;6360360;23;20071;-86
2023/04/26 01:23:18;;;;;;;0.30;0.30;;;;;;;7.48;53.84;101305.81;6340681;23;20033;-87
2023/04/26 01:25:48;;;;;;;0.30;0.30;;;;;;;7.43;53.32;101301.53;6342084;23;20029;-87
2023/04/26 01:28:19;;;;;;;0.35;0.35;;;;;;;7.42;54.05;101311.09;6365180;23;20029;-86
2023/04/26 01:30:49;;;;;;;1.13;0.93;;;;;;;7.39;54.00;101304.13;6366284;23;20021;-87
2023/04/26 01:33:20;;;;;;;0.70;0.70;;;;;;;7.38;54.18;101310.22;6339475;23;20009;-86
2023/04/26 01:35:50;;;;;;;0.85;0.85;;;;;;;7.32;53.38;101306.78;6361983;23;20079;-86
2023/04/26 01:38:21;;;;;;;0.38;0.38;;;;;;;7.32;54.34;101306.78;6374312;23;20343;-87
2023/04/26 01:40:51;;;;;;;0.47;0.47;;;;;;;7.27;53.65;101311.16;6336264;23;20009;-87
2023/04/26 01:43:22;;;;;;;0.65;0.65;;;;;;;7.24;53.98;101301.59;6363340;23;20021;-87
2023/04/26 01:45:52;;;;;;;0.40;0.40;;;;;;;7.20;54.05;101300.75;6337705;23;20036;-87
2023/04/26 01:48:23;;;;;;;0.30;0.30;;;;;;;7.19;53.76;101301.63;6364175;23;20303;-87
2023/04/26 01:50:53;;;;;;;1.02;0.95;;;;;;;7.16;54.11;101301.63;6366951;23;20021;-87
2023/04/26 01:53:24;;;;;;;0.30;0.30;;;;;;;7.13;54.25;101293.81;6339360;23;20088;-87
2023/04/26 01:55:54;;;;;;;0.45;0.45;;;;;;;7.12;54.30;101299.91;6361470;23;20072;-85
2023/04/26 01:58:25;;;;;;;1.33;1.23;;;;;;;7.09;54.40;101302.50;6344957;23;20006;-86
2023/04/26 02:01:03;;;;;;;0.50;0.50;;;;;;;7.07;54.36;101301.63;6342092;23;20073;-86
2023/04/26 02:03:34;;;;;;;0.57;0.57;;;;;;;7.05;53.98;101300.81;6338421;23;20013;-86
2023/04/26 02:06:05;;;;;;;0.80;0.80;;;;;;;7.01;54.76;101309.50;6360994;23;20021;-87
2023/04/26 02:08:36;;;;;;;0.43;0.43;;;;;;;7.01;54.79;101312.09;6363574;23;20002;-87
2023/04/26 02:11:06;;;;;;;0.50;0.50;;;;;;;6.97;54.52;101313.00;6360461;23;20089;-86
2023/04/26 02:13:37;;;;;;;0.70;0.70;;;;;;;6.92;53.77;101306.03;6337649;23;20013;-87
2023/04/26 02:16:07;;;;;;;0.50;0.50;;;;;;;6.86;54.14;101308.66;6362690;23;20013;-87
2023/04/26 02:18:38;;;;;;;0.25;0.25;;;;;;;6.86;54.78;101300.84;6362660;23;20010;-87
2023/04/26 02:21:10;;;;;;;0.40;0.40;;;;;;;6.84;55.05;101304.34;6360012;23;20014;-86
2023/04/26 02:23:40;;;;;;;0.60;0.60;;;;;;;6.83;54.14;101303.44;6337673;23;20013;-87
2023/04/26 02:26:12;;;;;;;0.40;0.40;;;;;;;6.80;54.88;101294.75;6357854;23;20013;-86
2023/04/26 02:28:42;;;;;;;0.57;0.57;;;;;;;6.76;54.43;101300.00;6337763;23;20005;-88
2023/04/26 02:31:13;;;;;;;0.57;0.57;;;;;;;6.77;55.04;101291.31;6335398;23;20025;-86
2023/04/26 02:33:43;;;;;;;0.80;0.80;;;;;;;6.75;54.61;101302.59;6362096;23;20041;-88
2023/04/26 02:36:14;;;;;;;0.35;0.35;;;;;;;6.70;54.64;101294.78;6336167;23;20013;-87
2023/04/26 02:38:45;;;;;;;0.60;0.60;;;;;;;6.66;54.72;101292.19;6372675;23;20567;-86
2023/04/26 02:41:15;;;;;;;0.30;0.30;;;;;;;6.63;54.92;101293.06;6359227;23;20036;-86
2023/04/26 02:43:46;;;;;;;0.73;0.68;;;;;;;6.59;54.72;101296.56;6362419;23;20909;-86
2023/04/26 02:46:17;;;;;;;0.40;0.40;;;;;;;6.57;55.29;101296.53;6359789;23;20093;-87
2023/04/26 02:48:47;;;;;;;0.55;0.55;;;;;;;6.57;55.07;101299.13;6337118;23;20088;-87
2023/04/26 02:51:18;;;;;;;1.27;1.17;;;;;;;6.53;55.36;101297.41;6361146;23;20017;-87
2023/04/26 02:53:48;;;;;;;5.43;1.65;;;;;;;6.48;54.67;101299.19;6337436;23;20013;-87
2023/04/26 02:56:19;;;;;;;0.57;0.57;;;;;;;6.49;55.16;101300.88;6359987;23;20029;-86
2023/04/26 02:58:49;;;;;;;0.30;0.30;;;;;;;6.42;54.65;101301.75;6337903;23;20013;-86
2023/04/26 03:01:20;;;;;;;0.40;0.40;;;;;;;6.25;54.53;101297.44;6371077;23;20013;-86
2023/04/26 03:03:50;;;;;;;6.63;2.50;;;;;;;6.33;55.69;101293.94;6395349;23;20018;-87
2023/04/26 03:06:21;;;;;;;0.32;0.32;;;;;;;6.33;55.08;101293.94;6360799;23;20057;-86
2023/04/26 03:08:51;;;;;;;0.30;0.30;;;;;;;6.33;55.42;101299.16;6363790;23;20005;-87
2023/04/26 03:11:22;;;;;;;0.45;0.45;;;;;;;6.33;55.31;101296.56;6386403;23;20025;-87
2023/04/26 03:13:52;;;;;;;0.47;0.47;;;;;;;6.28;55.63;101292.22;6338374;23;20013;-86
2023/04/26 03:16:23;;;;;;;0.20;0.20;;;;;;;6.25;55.02;101287.00;6360793;23;20026;-87
2023/04/26 03:18:53;;;;;;;0.30;0.30;;;;;;;6.21;55.21;101295.72;6337484;23;20016;-87
2023/04/26 03:21:24;;;;;;;0.50;0.50;;;;;;;6.21;55.67;101287.88;6359671;23;20020;-86
2023/04/26 03:23:55;;;;;;;1.08;1.08;;;;;;;6.20;56.14;101282.69;6337729;23;20005;-89
2023/04/26 03:26:25;;;;;;;0.30;0.30;;;;;;;6.17;55.24;101278.31;6337172;23;20462;-86
2023/04/26 03:28:56;;;;;;;0.75;0.38;;;;;;;6.14;55.34;101280.94;6363155;23;20005;-87
2023/04/26 03:31:26;;;;;;;1.17;1.17;;;;;;;6.13;56.13;101287.03;6358375;23;20465;-87
2023/04/26 03:33:57;;;;;;;0.63;0.63;;;;;;;6.05;54.82;101275.72;6362220;23;20454;-86
2023/04/26 03:36:28;;;;;;;0.65;0.65;;;;;;;6.03;55.20;101275.72;6360885;23;20519;-85
2023/04/26 03:38:59;;;;;;;0.20;0.20;;;;;;;6.01;55.24;101277.47;6337894;23;20012;-87
2023/04/26 03:41:29;;;;;;;7.13;1.65;;;;;;;5.98;55.56;101277.41;6359084;23;20017;-87
2023/04/26 03:44:00;;;;;;;0.68;0.68;;;;;;;5.93;55.23;101280.00;6337095;23;20017;-87
2023/04/26 03:46:30;;;;;;;0.95;0.95;;;;;;;5.93;56.11;101273.94;6360514;23;20021;-87
2023/04/26 03:49:01;;;;;;;0.60;0.60;;;;;;;5.89;56.07;101278.28;6362565;23;20005;-86
2023/04/26 03:51:31;;;;;;;0.20;0.20;;;;;;;5.88;56.02;101268.72;6359285;23;20022;-88
2023/04/26 03:54:02;;;;;;;0.40;0.40;;;;;;;5.83;55.38;101276.53;6336839;23;20009;-85
2023/04/26 03:56:32;;;;;;;0.52;0.52;;;;;;;5.79;55.03;101281.72;6359584;23;20028;-87
2023/04/26 03:59:03;;;;;;;0.65;0.65;;;;;;;5.71;54.91;101278.25;6360356;23;20014;-88
2023/04/26 04:01:34;;;;;;;0.60;0.60;;;;;;;5.73;56.08;101281.72;6358051;23;20506;-87
2023/04/26 04:06:45;;;;;;;1.70;0.65;;;;;;;5.66;55.97;101279.09;6381523;23;20029;-86
2023/04/26 04:09:16;;;;;;;2.03;1.85;;;;;;;5.66;56.16;101276.47;6371185;23;20056;-86
2023/04/26 04:11:46;;;;;;;1.33;1.23;;;;;;;5.69;55.90;101283.47;6363261;23;20021;-83
2023/04/26 04:14:17;;;;;;;0.50;0.50;;;;;;;5.66;56.47;101284.28;6370151;23;20009;-84
2023/04/26 04:16:47;;;;;;;0.35;0.35;;;;;;;5.67;56.63;101287.78;6359925;23;20230;-84
2023/04/26 04:19:18;;;;;;;0.82;0.82;;;;;;;5.66;56.58;101297.31;6376713;23;20005;-84
2023/04/26 04:21:48;;;;;;;0.20;0.20;;;;;;;5.61;56.09;101288.63;6378280;23;20100;-84
2023/04/26 04:24:19;;;;;;;0.55;0.55;;;;;;;5.59;56.56;101292.97;6367771;23;20005;-84
2023/04/26 04:26:49;;;;;;;0.20;0.20;;;;;;;5.58;56.29;101296.41;6366367;23;20275;-82
2023/04/26 04:29:19;;;;;;;1.02;1.02;;;;;;;5.61;56.31;101293.84;6351643;23;20070;-83
2023/04/26 04:31:50;;;;;;;2.63;0.82;;;;;;;5.55;55.85;101287.75;6361451;23;20013;-83
2023/04/26 04:34:22;;;;;;;0.30;0.30;;;;;;;5.49;56.29;101289.47;6359354;23;19993;-81
2023/04/26 04:36:53;;;;;;;0.45;0.45;;;;;;;5.53;56.70;101297.31;6390363;23;20022;-82
2023/04/26 04:39:24;;;;;;;0.98;0.98;;;;;;;5.52;56.41;101296.41;6398469;23;20028;-82
2023/04/26 04:41:54;;;;;;;4.15;1.65;;;;;;;5.53;56.96;101298.16;6361637;23;20271;-82
2023/04/26 04:44:25;;;;;;;0.88;0.88;;;;;;;5.53;56.65;101300.75;6392739;23;20012;-82
2023/04/26 04:46:57;;;;;;;0.70;0.70;;;;;;;5.56;57.07;101298.19;6374673;23;20039;-82
2023/04/26 04:49:27;;;;;;;1.73;1.63;;;;;;;5.52;56.76;101293.81;6336381;23;20017;-83
2023/04/26 04:51:58;;;;;;;8.85;1.90;;;;;;;5.45;56.48;101302.47;6360804;23;20056;-83
2023/04/26 04:54:28;;;;;;;0.95;0.95;;;;;;;5.41;55.89;101303.34;6371339;23;20586;-83
2023/04/26 04:57:00;;;;;;;1.30;0.82;;;;;;;5.40;57.05;101314.59;6337583;23;20021;-84
2023/04/26 04:59:30;;;;;;;0.22;0.22;;;;;;;5.39;57.37;101312.88;6369017;23;20017;-83
2023/04/26 05:02:00;;;;;;;0.65;0.65;;;;;;;5.35;57.78;101318.03;6358918;23;20044;-83
2023/04/26 05:04:33;;;;;;;1.85;1.08;;;;;;;5.35;57.71;101318.03;6335251;23;20113;-82
2023/04/26 05:07:04;;;;;;;4.50;1.85;;;;;;;5.38;57.85;101321.53;6363889;23;20026;-84
2023/04/26 05:09:35;;;;;;;1.02;0.77;;;;;;;5.35;57.75;101327.59;6373145;23;20009;-83
2023/04/26 05:12:06;;;;;;;0.85;0.85;;;;;;;5.36;57.96;101325.00;6341403;23;20029;-84
2023/04/26 05:14:36;;;;;;;0.60;0.60;;;;;;;5.29;57.02;101328.44;6364243;23;20495;-83
2023/04/26 05:17:07;;;;;;;1.25;1.15;;;;;;;5.29;59.49;101330.19;6363553;23;20021;-83
2023/04/26 05:19:37;;;;;;;0.82;0.82;;;;;;;5.25;58.57;101331.88;6356641;23;20022;-83
2023/04/26 05:22:08;;;;;;;15.38;1.00;;;;;;;5.29;58.96;101332.78;6330685;23;20018;-83
2023/04/26 05:24:38;;;;;;;0.57;0.57;;;;;;;5.33;58.66;101330.16;6335370;23;20016;-83
2023/04/26 05:27:08;;;;;;;0.30;0.30;;;;;;;5.30;58.04;101340.59;6359535;23;20013;-83
2023/04/26 05:29:39;;;;;;;1.55;1.13;;;;;;;5.27;58.63;101335.34;6367992;23;20022;-82
2023/04/26 05:32:10;;;;;;;0.82;0.82;;;;;;;5.12;60.35;101340.47;6358273;23;20067;-83
2023/04/26 05:34:40;;;;;;;0.50;0.50;;;;;;;5.19;60.11;101344.84;6336415;23;20017;-83
2023/04/26 05:37:10;;;;;;;0.47;0.47;;;;;;;5.03;63.00;101349.97;6344211;23;20018;-84
2023/04/26 05:39:41;;;;;;;2.72;2.53;;;;;;;5.08;61.87;101350.00;6370197;23;20033;-83
2023/04/26 05:42:11;;;;;;;0.85;0.85;;;;;;;5.01;62.93;101349.09;6359977;23;20068;-84
2023/04/26 05:44:42;;;;;;;1.35;0.73;;;;;;;4.94;64.09;101347.31;6368723;23;20024;-84
2023/04/26 05:47:12;;;;;;;1.15;1.02;;;;;;;4.77;66.38;101354.13;6336531;23;20632;-83
2023/04/26 05:49:43;;;;;;;0.35;0.35;;;;;;;4.93;65.60;101355.13;6337305;23;20041;-83
2023/04/26 05:52:13;;;;;;;2.03;1.92;;;;;;;4.87;66.73;101351.63;6361098;23;20024;-83
2023/04/26 05:54:43;;;;;;;3.35;2.90;;;;;;;5.00;64.23;101356.88;6336304;23;20017;-84
2023/04/26 05:57:14;;;;;;;2.38;1.67;;;;;;;5.10;65.69;101357.81;6336922;23;20064;-84
2023/04/26 05:59:45;;;;;;;0.50;0.50;;;;;;;4.99;66.56;101353.44;6358514;23;20017;-84
2023/04/26 06:02:16;;;;;;;14.63;5.50;;;;;;;5.14;63.34;101359.59;6333668;23;20013;-84
2023/04/26 06:04:46;;;;;;;1.00;0.98;;;;;;;5.16;64.27;101357.88;6368110;23;20026;-83
2023/04/26 06:07:17;;;;;;;0.80;0.80;;;;;;;5.08;66.24;101354.34;6359717;23;20129;-84
2023/04/26 06:09:47;;;;;;;0.85;0.85;;;;;;;5.09;67.08;101363.88;6335532;23;20021;-83
2023/04/26 06:12:17;;;;;;;0.63;0.63;;;;;;;5.15;65.30;101361.31;6335764;23;20363;-82
2023/04/26 06:14:48;;;;;;;1.33;1.23;;;;;;;5.27;63.93;101366.56;6337177;23;20305;-84
2023/04/26 06:17:18;;;;;;;1.85;1.75;;;;;;;5.23;66.65;101370.03;6361348;23;20029;-84
2023/04/26 06:19:49;;;;;;;1.70;1.58;;;;;;;5.01;69.29;101363.84;6360254;23;20047;-84
2023/04/26 06:22:19;;;;;;;0.45;0.45;;;;;;;5.18;67.49;101371.72;6358823;23;20025;-83
2023/04/26 06:24:50;;;;;;;1.75;1.50;;;;;;;5.24;67.56;101366.59;6336492;23;20017;-83
2023/04/26 06:27:20;;;;;;;1.02;1.02;;;;;;;5.41;66.79;101373.59;6337443;23;20005;-83
2023/04/26 06:29:51;;;;;;;2.17;1.50;;;;;;;5.18;69.07;101375.22;6359980;23;20044;-85
2023/04/26 06:32:21;;;;;;;1.10;1.10;;;;;;;5.16;69.33;101373.47;6337013;23;20060;-84
2023/04/26 06:34:52;;;;;;;1.20;1.15;;;;;;;5.32;67.04;101375.31;6359662;23;20426;-84
2023/04/26 06:37:22;;;;;;;0.95;0.95;;;;;;;5.22;68.98;101373.50;6337856;23;20102;-83
2023/04/26 06:39:53;;;;;;;0.75;0.75;;;;;;;5.31;69.44;101376.16;6344640;23;20029;-84
2023/04/26 06:42:23;;;;;;;0.65;0.65;;;;;;;5.47;68.19;101378.84;6337689;23;20013;-84
2023/04/26 06:44:54;;;;;;;1.08;1.08;;;;;;;5.47;68.36;101378.84;6369596;23;20528;-84
2023/04/26 06:47:24;;;;;;;0.55;0.55;;;;;;;5.34;69.72;101377.91;6339055;23;20005;-84
2023/04/26 06:49:55;;;;;;;1.95;1.40;;;;;;;5.39;69.26;101380.53;6360141;23;20065;-84
2023/04/26 06:52:25;;;;;;;0.65;0.65;;;;;;;5.49;69.07;101371.91;6337100;23;20017;-82
2023/04/26 06:54:56;;;;;;;0.50;0.50;;;;;;;5.68;67.05;101367.63;6338855;23;20022;-84
2023/04/26 06:57:26;;;;;;;2.40;1.80;;;;;;;5.68;67.18;101370.25;6338171;23;20332;-85
2023/04/26 06:59:57;;;;;;;0.45;0.45;;;;;;;5.83;66.47;101366.78;6339986;23;20808;-84
2023/04/26 07:02:27;;;;;;;0.40;0.40;;;;;;;5.95;66.26;101369.44;6338141;23;20013;-83
2023/04/26 07:04:58;;;;;;;2.38;1.52;;;;;;;5.70;67.80;101360.72;6340655;23;20025;-84
2023/04/26 07:07:28;;;;;;;0.45;0.45;;;;;;;5.83;67.41;101367.69;6342720;23;20041;-82
2023/04/26 07:09:59;;;;;;;1.90;1.75;;;;;;;6.01;66.36;101381.66;6373735;23;20414;-84
2023/04/26 07:12:29;;;;;;;12.80;2.22;;;;;;;6.18;64.69;101371.25;6340932;23;20033;-84
2023/04/26 07:15:00;;;;;;;0.55;0.55;;;;;;;6.06;67.52;101376.47;6338174;23;20035;-83
2023/04/26 07:17:31;;;;;;;1.67;1.58;;;;;;;5.99;66.68;101379.03;6371335;23;20006;-83
2023/04/26 07:20:01;;;;;;;1.58;1.42;;;;;;;6.12;66.28;101373.84;6335262;23;20017;-83
2023/04/26 07:22:32;;;;;;;0.30;0.30;;;;;;;6.14;67.02;101377.34;6370439;23;20060;-83
2023/04/26 07:25:03;;;;;;;0.45;0.45;;;;;;;6.15;67.66;101381.69;6359765;23;20096;-83
2023/04/26 07:27:34;;;;;;;0.40;0.40;;;;;;;6.14;67.02;101385.16;6337193;23;20079;-83
2023/04/26 07:30:05;;;;;;;1.38;1.25;;;;;;;6.33;66.69;101382.56;6364326;23;20048;-83
2023/04/26 07:32:36;;;;;;;0.40;0.40;;;;;;;6.46;65.24;101384.34;6360588;23;20644;-85
2023/04/26 07:35:07;;;;;;;0.38;0.35;;;;;;;6.55;65.28;101386.94;6337076;23;20020;-85
2023/04/26 07:37:37;;;;;;;0.47;0.47;;;;;;;6.61;64.37;101389.53;6371293;23;20064;-83
2023/04/26 07:40:09;;;;;;;0.40;0.40;;;;;;;6.78;64.05;101386.06;6363524;23;20017;-83
2023/04/26 07:42:40;;;;;;;0.52;0.52;;;;;;;6.82;64.39;101387.78;6371700;23;20031;-84
2023/04/26 07:45:11;;;;;;;0.40;0.40;;;;;;;6.93;63.79;101377.38;6335987;23;20021;-83
2023/04/26 07:47:41;;;;;;;0.80;0.80;;;;;;;7.03;63.37;101373.84;6337575;23;20013;-82
2023/04/26 07:50:11;;;;;;;3.13;0.77;;;;;;;7.18;62.81;101378.19;6334509;23;20044;-83
2023/04/26 07:52:42;;;;;;;0.28;0.28;;;;;;;7.16;62.51;101373.84;6362283;23;20049;-83
2023/04/26 07:55:12;;;;;;;0.50;0.50;;;;;;;7.18;62.86;101374.72;6370193;23;20017;-84
2023/04/26 07:57:43;;;;;;;0.98;0.75;;;;;;;7.12;62.01;101372.97;6337890;23;20017;-83
2023/04/26 08:00:14;;;;;;;0.32;0.32;;;;;;;7.33;62.46;101373.78;6361777;23;20100;-83
2023/04/26 08:02:48;;;;;;;5.32;0.70;;;;;;;7.38;62.09;101377.25;6364643;23;20012;-84
2023/04/26 08:05:18;;;;;;;0.32;0.32;;;;;;;7.45;61.45;101373.75;6338191;23;20014;-84
2023/04/26 08:07:49;;;;;;;0.40;0.40;;;;;;;7.45;59.10;101365.91;6337785;23;20088;-84
2023/04/26 08:10:19;;;;;;;0.93;0.57;;;;;;;7.58;59.97;101369.34;6335188;23;20483;-84
2023/04/26 08:12:50;;;;;;;2.78;2.05;;;;;;;7.62;60.58;101370.19;6346587;23;20092;-83
2023/04/26 08:15:20;;;;;;;0.95;0.95;;;;;;;7.58;59.37;101371.97;6372476;23;20018;-83
2023/04/26 08:17:52;;;;;;;0.60;0.60;;;;;;;7.67;58.62;101371.03;6365131;23;20383;-84
2023/04/26 08:20:22;;;;;;;0.30;0.30;;;;;;;7.53;57.70;101371.97;6336227;23;20317;-83
2023/04/26 08:22:56;;;;;;;0.75;0.75;;;;;;;7.68;58.96;101367.56;6376145;23;20017;-83
2023/04/26 08:25:27;;;;;;;0.30;0.30;;;;;;;7.72;57.50;101371.91;6369929;23;20459;-83
2023/04/26 08:27:57;;;;;;;0.30;0.30;;;;;;;7.57;58.90;101368.47;6375269;23;20088;-83
2023/04/26 08:30:28;;;;;;;0.28;0.28;;;;;;;7.76;58.79;101363.16;6339449;23;20017;-85
2023/04/26 08:32:58;;;;;;;2.05;1.58;;;;;;;7.97;59.44;101366.53;6341149;23;20060;-84
2023/04/26 08:35:30;;;;;;;0.20;0.20;;;;;;;7.80;56.33;101374.47;6336884;23;20029;-84
2023/04/26 08:38:01;;;;;;;0.55;0.55;;;;;;;7.97;57.50;101377.00;6337098;23;20017;-84
2023/04/26 08:40:31;;;;;;;1.02;0.95;;;;;;;7.99;56.68;101375.22;6359900;23;20023;-83
2023/04/26 08:43:02;;;;;;;0.30;0.30;;;;;;;8.22;56.66;101375.09;6336651;23;20002;-84
2023/04/26 08:45:35;;;;;;;0.50;0.50;;;;;;;8.14;57.01;101375.13;6364834;23;20021;-84
2023/04/26 08:48:13;;;;;;;0.50;0.50;;;;;;;8.21;56.80;101378.56;6337683;23;20087;-84
2023/04/26 08:50:45;;;;;;;0.50;0.50;;;;;;;8.11;55.56;101369.94;6364849;23;20013;-83
2023/04/26 08:53:19;;;;;;;0.40;0.40;;;;;;;8.20;55.97;101384.69;6374614;23;20005;-83
2023/04/26 08:55:50;;;;;;;0.98;0.95;;;;;;;8.12;54.17;101381.25;6336510;23;20016;-84
2023/04/26 08:58:21;;;;;;;0.20;0.20;;;;;;;8.34;55.07;101381.97;6336558;23;20351;-83
2023/04/26 09:00:52;;;;;;;0.30;0.30;;;;;;;8.17;51.58;101385.56;6363180;23;20017;-83
2023/04/26 09:03:25;;;;;;;0.30;0.30;;;;;;;8.31;53.25;101380.25;6397460;23;20018;-84
2023/04/26 09:05:56;;;;;;;0.75;0.75;;;;;;;8.28;52.39;101385.50;6340102;23;20014;-83
2023/04/26 09:08:27;;;;;;;4.43;1.20;;;;;;;8.12;51.95;101379.50;6338441;23;20017;-83
2023/04/26 09:10:57;;;;;;;0.45;0.45;;;;;;;8.30;52.38;101383.75;6335996;23;20161;-84
2023/04/26 09:13:29;;;;;;;0.28;0.28;;;;;;;8.30;52.40;101382.88;6338324;23;20013;-83
2023/04/26 09:15:59;;;;;;;0.75;0.75;;;;;;;8.34;53.47;101372.41;6335092;23;20014;-84
2023/04/26 09:18:32;;;;;;;0.40;0.40;;;;;;;8.33;52.52;101377.63;6369693;23;20016;-84
2023/04/26 09:21:03;;;;;;;0.35;0.35;;;;;;;8.58;54.05;101370.50;6333364;23;20010;-84
2023/04/26 09:23:34;;;;;;;0.30;0.30;;;;;;;8.60;53.71;101363.47;6335725;23;20048;-83
2023/04/26 09:26:18;;;;;;;1.15;1.15;;;;;;;8.59;52.88;101358.28;6333816;23;20013;-84
2023/04/26 09:28:49;;;;;;;0.30;0.30;;;;;;;8.47;52.53;101354.88;6336404;23;20061;-83
2023/04/26 09:31:37;;;;;;;0.32;0.32;;;;;;;8.45;51.82;101351.41;6332840;23;20102;-83
2023/04/26 09:34:10;;;;;;;0.20;0.20;;;;;;;8.43;50.36;101352.28;6359850;23;20017;-83
2023/04/26 09:36:57;;;;;;;3.80;1.25;;;;;;;8.36;50.28;101359.31;6372692;23;20029;-84
2023/04/26 09:39:39;;;;;;;0.90;0.90;;;;;;;8.69;52.55;101359.94;6333545;23;20037;-84
2023/04/26 09:42:12;;;;;;;1.42;1.42;;;;;;;8.74;50.90;101355.53;6334742;23;20068;-84
2023/04/26 09:44:42;;;;;;;0.40;0.40;;;;;;;8.90;51.05;101348.41;6336330;23;20045;-85
2023/04/26 09:47:13;;;;;;;13.00;0.65;;;;;;;9.06;50.31;101351.72;6360634;23;20076;-84
2023/04/26 09:49:49;;;;;;;0.40;0.40;;;;;;;9.08;49.52;101343.88;6335928;23;20029;-84
2023/04/26 09:52:19;;;;;;;1.00;0.65;;;;;;;8.76;47.46;101343.28;6345655;23;20016;-84
2023/04/26 09:54:52;;;;;;;0.47;0.47;;;;;;;8.86;48.39;101345.81;6336491;23;20009;-84
2023/04/26 09:57:22;;;;;;;0.30;0.30;;;;;;;8.97;46.90;101349.19;6335915;23;20020;-84
2023/04/26 09:59:55;;;;;;;3.30;1.20;;;;;;;9.12;48.64;101341.19;6334984;23;20041;-83
2023/04/26 10:02:26;;;;;;;0.50;0.50;;;;;;;9.22;48.53;101346.31;6358709;23;20071;-84
2023/04/26 10:04:58;;;;;;;0.30;0.30;;;;;;;9.47;48.07;101346.00;6333306;23;20048;-84
2023/04/26 10:07:29;;;;;;;0.20;0.20;;;;;;;9.38;48.89;101337.38;6372818;23;20009;-84
2023/04/26 10:10:00;;;;;;;3.58;2.05;;;;;;;9.25;47.51;101346.28;6366381;23;20451;-83
2023/04/26 10:12:31;;;;;;;0.20;0.20;;;;;;;8.96;48.25;101352.72;6335239;23;20013;-84
2023/04/26 10:15:02;;;;;;;4.85;1.08;;;;;;;9.20;48.87;101342.84;6335364;23;20367;-84
2023/04/26 10:17:33;;;;;;;0.30;0.30;;;;;;;9.27;48.91;101347.13;6336479;23;20017;-84
2023/04/26 10:20:07;;;;;;;19.13;1.65;;;;;;;9.40;49.48;101330.38;6334195;23;20029;-84
2023/04/26 10:22:50;;;;;;;0.40;0.40;;;;;;;9.21;46.14;101339.34;6335648;23;20017;-84
2023/04/26 10:25:33;;;;;;;0.40;0.40;;;;;;;9.26;47.59;101337.53;6358465;23;20040;-84
2023/04/26 10:28:05;;;;;;;0.30;0.30;;;;;;;9.33;45.76;101333.97;6372492;23;20549;-84
2023/04/26 10:30:53;;;;;;;0.40;0.40;;;;;;;9.39;46.55;101333.88;6338903;23;20496;-83
2023/04/26 10:33:25;;;;;;;0.20;0.20;;;;;;;9.44;46.13;101334.72;6372783;23;20016;-83
2023/04/26 10:35:58;;;;;;;0.47;0.47;;;;;;;9.55;48.12;101339.81;6371401;23;20024;-83
2023/04/26 10:38:28;;;;;;;;;;;;;;;9.70;48.49;101336.13;6386256;23;20016;-85
2023/04/26 10:41:32;;;;;;;0.80;0.80;;;;;;;9.65;46.13;101335.31;6335485;23;19913;-84
2023/04/26 10:44:33;;;;;;;0.30;0.30;;;;;;;9.87;48.62;101328.00;6338869;23;20383;-85
2023/04/26 10:47:05;;;;;;;0.30;0.30;;;;;;;9.88;46.39;101331.47;6339457;23;20026;-84
2023/04/26 10:49:47;;;;;;;0.43;0.43;;;;;;;9.99;46.99;101336.59;6369668;23;20455;-84
2023/04/26 10:52:19;;;;;;;1.65;1.08;;;;;;;9.97;45.92;101325.25;6337355;23;20399;-83
2023/04/26 10:54:54;;;;;;;0.25;0.25;;;;;;;10.09;46.35;101325.06;6370320;23;20021;-84
2023/04/26 10:57:56;;;;;;;0.68;0.60;;;;;;;10.08;45.60;101329.44;6377454;23;20008;-84
2023/04/26 11:00:28;;;;;;;0.22;0.22;;;;;;;9.99;44.75;101329.59;6384300;23;20024;-84
2023/04/26 11:03:05;;;;;;;0.60;0.60;;;;;;;10.17;45.24;101317.09;6397671;23;20056;-85
2023/04/26 11:05:54;;;;;;;0.60;0.60;;;;;;;10.29;46.44;101311.63;6364161;23;20009;-84
2023/04/26 11:08:27;;;;;;;1.30;1.05;;;;;;;10.44;45.91;101313.16;6360737;23;20040;-86
2023/04/26 11:11:03;;;;;;;1.02;1.00;;;;;;;10.27;44.92;101310.81;6348997;23;20017;-85
2023/04/26 11:13:39;;;;;;;0.47;0.47;;;;;;;10.53;46.64;101309.53;6342304;23;20040;-85
2023/04/26 11:16:15;;;;;;;0.40;0.40;;;;;;;10.68;46.06;101311.00;6364912;23;20588;-83
2023/04/26 11:18:46;;;;;;;0.43;0.43;;;;;;;10.52;44.58;101305.19;6339991;23;20091;-85
2023/04/26 11:21:18;;;;;;;0.50;0.50;;;;;;;10.67;44.76;101304.91;6363889;23;20478;-84
2023/04/26 11:23:53;;;;;;;0.57;0.57;;;;;;;10.41;44.20;101307.09;6340552;23;20128;-84
2023/04/26 11:26:31;;;;;;;0.20;0.20;;;;;;;10.66;45.44;101310.19;6359339;23;20033;-84
2023/04/26 11:29:02;;;;;;;3.63;2.42;;;;;;;10.80;45.08;101302.91;6341795;23;19998;-84
2023/04/26 11:31:33;;;;;;;0.40;0.40;;;;;;;10.89;45.23;101301.88;6362758;23;20022;-84
2023/04/26 11:34:04;;;;;;;0.52;0.52;;;;;;;11.01;45.55;101288.50;6340221;23;20005;-85
2023/04/26 11:36:36;;;;;;;0.52;0.52;;;;;;;10.86;43.58;101296.69;6340535;23;20022;-84
2023/04/26 11:39:07;;;;;;;0.30;0.30;;;;;;;11.05;44.58;101285.81;6313352;23;20013;-85
2023/04/26 11:41:37;;;;;;;0.30;0.30;;;;;;;11.15;45.83;101287.34;6362572;23;20472;-84
2023/04/26 11:44:10;;;;;;;0.28;0.28;;;;;;;11.22;43.67;101285.47;6364578;23;20546;-85
2023/04/26 11:46:41;;;;;;;0.43;0.43;;;;;;;11.16;44.85;101278.59;6340794;23;20031;-83
2023/04/26 11:49:12;;;;;;;1.35;1.10;;;;;;;10.55;43.76;101286.75;6374707;23;20001;-84
2023/04/26 11:51:46;;;;;;;2.28;1.20;;;;;;;11.05;44.20;101285.81;6339592;23;20006;-84
2023/04/26 11:54:32;;;;;;;0.30;0.30;;;;;;;11.21;44.66;101281.13;6372777;23;20084;-84